createdAt,value
2023-05-21T00:00:17.078Z,5.07
2023-05-21T00:03:03.874Z,5.13
2023-05-21T00:05:50.557Z,5.93
2023-05-21T00:08:36.845Z,5.85
2023-05-21T00:11:22.712Z,5.55
2023-05-21T00:14:08.686Z,5.03
2023-05-21T00:16:54.711Z,5.07
2023-05-21T00:19:40.711Z,5.13
2023-05-21T00:22:27.044Z,5.05
2023-05-21T00:25:13.503Z,4.80
2023-05-21T00:27:59.667Z,4.75
2023-05-21T00:30:45.786Z,4.93
2023-05-21T00:33:31.964Z,4.72
2023-05-21T00:36:18.458Z,5.05
2023-05-21T00:39:04.694Z,4.97
2023-05-21T00:41:51.148Z,4.57
2023-05-21T00:44:37.037Z,5.07
2023-05-21T00:47:23.193Z,4.80
2023-05-21T00:50:10.180Z,5.20
2023-05-21T00:52:56.788Z,5.18
2023-05-21T00:55:42.915Z,4.95
2023-05-21T00:58:30.165Z,5.05
2023-05-21T01:01:18.349Z,5.07
2023-05-21T01:04:05.184Z,5.25
2023-05-21T01:06:53.512Z,5.03
2023-05-21T01:09:41.001Z,4.90
2023-05-21T01:12:27.200Z,4.60
2023-05-21T01:15:14.127Z,4.72
2023-05-21T01:18:00.832Z,4.65
2023-05-21T01:20:50.269Z,4.70
2023-05-21T01:23:36.972Z,4.68
2023-05-21T01:26:25.945Z,4.47
2023-05-21T01:29:14.122Z,4.57
2023-05-21T01:32:22.524Z,4.60
2023-05-21T01:35:12.889Z,4.28
2023-05-21T01:38:22.705Z,4.75
2023-05-21T01:41:12.856Z,4.50
2023-05-21T01:43:59.429Z,4.65
2023-05-21T01:46:45.589Z,4.75
2023-05-21T01:49:31.782Z,4.57
2023-05-21T01:52:17.763Z,4.80
2023-05-21T01:55:04.028Z,4.63
2023-05-21T01:57:54.442Z,4.40
2023-05-21T02:00:40.391Z,4.28
2023-05-21T02:03:31.170Z,5.18
2023-05-21T02:06:18.014Z,4.90
2023-05-21T02:09:04.754Z,4.63
2023-05-21T02:11:51.289Z,4.70
2023-05-21T02:14:39.115Z,4.53
2023-05-21T02:17:26.186Z,4.72
2023-05-21T02:20:13.663Z,4.60
2023-05-21T02:23:00.034Z,4.93
2023-05-21T02:25:46.198Z,4.95
2023-05-21T02:28:32.817Z,4.70
2023-05-21T02:31:18.889Z,4.55
2023-05-21T02:34:04.834Z,4.88
2023-05-21T02:36:54.610Z,4.32
2023-05-21T02:39:41.362Z,5.35
2023-05-21T02:42:27.216Z,4.20
2023-05-21T02:45:13.794Z,4.68
2023-05-21T02:48:02.253Z,5.15
2023-05-21T02:50:51.725Z,4.70
2023-05-21T02:53:38.784Z,4.93
2023-05-21T02:56:24.885Z,4.63
2023-05-21T02:59:11.078Z,5.05
2023-05-21T03:01:57.274Z,4.50
2023-05-21T03:04:47.840Z,5.00
2023-05-21T03:07:34.817Z,4.63
2023-05-21T03:10:21.359Z,5.10
2023-05-21T03:13:09.740Z,4.97
2023-05-21T03:15:57.392Z,4.28
2023-05-21T03:18:44.147Z,4.85
2023-05-21T03:21:30.187Z,4.78
2023-05-21T03:24:16.599Z,5.20
2023-05-21T03:27:02.851Z,4.63
2023-05-21T03:29:50.106Z,4.95
2023-05-21T03:32:41.343Z,4.93
2023-05-21T03:35:27.682Z,4.22
2023-05-21T03:38:14.084Z,4.90
2023-05-21T03:41:00.433Z,5.18
2023-05-21T03:43:46.997Z,4.78
2023-05-21T03:46:33.605Z,5.05
2023-05-21T03:49:26.918Z,4.82
2023-05-21T03:52:15.472Z,5.50
2023-05-21T03:57:48.504Z,4.70
2023-05-21T04:00:37.408Z,4.70
2023-05-21T04:03:25.079Z,4.70
2023-05-21T04:06:11.256Z,4.70
2023-05-21T04:08:58.750Z,5.30
2023-05-21T04:11:44.712Z,4.80
2023-05-21T04:14:30.718Z,4.45
2023-05-21T04:17:16.554Z,4.70
2023-05-21T04:20:04.318Z,4.53
2023-05-21T04:22:51.758Z,4.85
2023-05-21T04:25:38.738Z,5.50
2023-05-21T04:28:28.788Z,5.05
2023-05-21T04:31:15.851Z,4.55
2023-05-21T04:34:02.462Z,4.38
2023-05-21T04:36:48.921Z,4.70
2023-05-21T04:39:35.002Z,4.28
2023-05-21T04:42:24.080Z,4.28
2023-05-21T04:45:11.286Z,4.78
2023-05-21T04:48:00.432Z,4.70
2023-05-21T04:50:48.470Z,4.15
2023-05-21T04:53:35.942Z,4.78
2023-05-21T04:56:27.935Z,4.45
2023-05-21T04:59:14.804Z,4.40
2023-05-21T05:02:01.362Z,4.22
2023-05-21T05:07:33.632Z,4.28
2023-05-21T05:10:19.808Z,4.50
2023-05-21T05:13:06.450Z,3.83
2023-05-21T05:15:54.754Z,4.63
2023-05-21T05:18:41.551Z,4.38
2023-05-21T05:21:28.022Z,4.43
2023-05-21T05:24:16.181Z,4.57
2023-05-21T05:27:03.200Z,4.80
2023-05-21T05:29:50.664Z,4.38
2023-05-21T05:32:36.911Z,4.82
2023-05-21T05:35:23.316Z,4.75
2023-05-21T05:38:10.395Z,4.68
2023-05-21T05:40:56.945Z,4.68
2023-05-21T05:43:43.002Z,4.53
2023-05-21T05:46:29.630Z,3.90
2023-05-21T05:49:17.091Z,4.68
2023-05-21T05:52:03.782Z,4.80
2023-05-21T05:54:49.691Z,4.68
2023-05-21T05:57:35.994Z,4.70
2023-05-21T06:00:27.593Z,4.25
2023-05-21T06:03:14.623Z,4.80
2023-05-21T06:06:01.929Z,4.45
2023-05-21T06:08:49.998Z,4.50
2023-05-21T06:11:35.990Z,4.18
2023-05-21T06:14:21.881Z,4.28
2023-05-21T06:17:10.001Z,4.57
2023-05-21T06:19:56.756Z,4.53
2023-05-21T06:22:44.489Z,4.28
2023-05-21T06:25:31.890Z,4.70
2023-05-21T06:28:18.229Z,4.57
2023-05-21T06:33:53.502Z,4.45
2023-05-21T06:36:40.332Z,4.07
2023-05-21T06:39:27.200Z,4.80
2023-05-21T06:42:15.071Z,4.10
2023-05-21T06:45:20.562Z,4.63
2023-05-21T06:48:07.595Z,4.47
2023-05-21T06:50:54.255Z,4.00
2023-05-21T06:53:40.552Z,4.57
2023-05-21T06:56:27.875Z,3.70
2023-05-21T06:59:14.806Z,3.92
2023-05-21T07:02:03.001Z,3.95
2023-05-21T07:04:50.437Z,4.00
2023-05-21T07:07:36.890Z,4.05
2023-05-21T07:10:22.944Z,4.20
2023-05-21T07:13:09.318Z,3.92
2023-05-21T07:15:56.782Z,4.70
2023-05-21T07:18:44.698Z,4.40
2023-05-21T07:21:31.299Z,4.05
2023-05-21T07:24:18.211Z,4.30
2023-05-21T07:27:11.281Z,4.40
2023-05-21T07:30:04.966Z,4.20
2023-05-21T07:32:51.596Z,4.32
2023-05-21T07:38:24.593Z,4.18
2023-05-21T07:41:11.172Z,4.65
2023-05-21T07:43:58.569Z,4.45
2023-05-21T07:46:45.140Z,4.18
2023-05-21T07:49:31.900Z,4.80
2023-05-21T07:52:18.343Z,5.05
2023-05-21T07:57:54.270Z,4.60
2023-05-21T08:00:47.293Z,4.82
2023-05-21T08:03:33.811Z,4.95
2023-05-21T08:06:20.288Z,5.18
2023-05-21T08:09:08.234Z,4.45
2023-05-21T08:11:55.113Z,4.35
2023-05-21T08:17:32.752Z,4.57
2023-05-21T08:20:20.564Z,5.00
2023-05-21T08:23:10.153Z,4.30
2023-05-21T08:26:01.014Z,4.80
2023-05-21T08:28:47.849Z,4.55
2023-05-21T08:31:34.401Z,4.40
2023-05-21T08:34:20.735Z,4.60
2023-05-21T08:37:27.407Z,4.40
2023-05-21T08:40:36.871Z,4.43
2023-05-21T08:43:24.789Z,4.20
2023-05-21T08:46:11.008Z,5.00
2023-05-21T08:49:02.272Z,4.50
2023-05-21T08:51:50.267Z,4.95
2023-05-21T08:54:37.781Z,4.38
2023-05-21T08:57:26.995Z,4.38
2023-05-21T09:00:14.995Z,4.50
2023-05-21T09:03:02.824Z,4.45
2023-05-21T09:05:51.345Z,4.70
2023-05-21T09:08:43.200Z,4.50
2023-05-21T09:11:37.206Z,4.68
2023-05-21T09:17:32.701Z,4.47
2023-05-21T09:20:56.575Z,4.60
2023-05-21T09:23:44.939Z,4.70
2023-05-21T09:26:31.082Z,4.70
2023-05-21T09:29:21.779Z,4.60
2023-05-21T09:32:09.816Z,4.90
2023-05-21T09:35:10.622Z,4.50
2023-05-21T09:37:57.636Z,4.50
2023-05-21T09:40:45.687Z,4.55
2023-05-21T09:43:32.383Z,4.95
2023-05-21T09:46:21.791Z,4.40
2023-05-21T09:49:23.412Z,5.07
2023-05-21T09:52:09.718Z,4.93
2023-05-21T09:54:55.642Z,5.10
2023-05-21T09:57:48.684Z,4.80
2023-05-21T10:00:37.035Z,5.05
2023-05-21T10:03:26.851Z,5.35
2023-05-21T10:06:14.962Z,5.22
2023-05-21T10:09:05.732Z,4.68
2023-05-21T10:11:54.574Z,5.38
2023-05-21T10:14:43.802Z,4.95
2023-05-21T10:17:30.883Z,5.35
2023-05-21T10:20:17.588Z,4.82
2023-05-21T10:23:04.702Z,5.35
2023-05-21T10:25:52.758Z,4.95
2023-05-21T10:28:40.052Z,5.07
2023-05-21T10:31:27.627Z,4.55
2023-05-21T10:34:14.689Z,4.78
2023-05-21T10:37:03.184Z,4.93
2023-05-21T10:39:50.661Z,4.57
2023-05-21T10:43:06.054Z,4.93
2023-05-21T10:46:03.704Z,4.53
2023-05-21T10:49:17.522Z,4.40
2023-05-21T10:52:18.651Z,5.00
2023-05-21T10:55:13.841Z,4.78
2023-05-21T10:58:30.307Z,4.68
2023-05-21T11:01:19.436Z,4.88
2023-05-21T11:04:08.382Z,4.90
2023-05-21T11:06:54.740Z,5.13
2023-05-21T11:09:40.892Z,4.40
2023-05-21T11:12:29.838Z,5.35
2023-05-21T11:15:16.387Z,4.82
2023-05-21T11:18:02.416Z,4.72
2023-05-21T11:20:52.022Z,4.93
2023-05-21T11:23:54.587Z,4.63
2023-05-21T11:26:52.608Z,4.90
2023-05-21T11:29:44.404Z,5.15
2023-05-21T11:32:31.680Z,4.75
2023-05-21T11:35:17.895Z,4.88
2023-05-21T11:38:03.883Z,5.22
2023-05-21T11:40:55.385Z,4.28
2023-05-21T11:43:43.695Z,4.47
2023-05-21T11:46:30.550Z,4.90
2023-05-21T11:49:16.961Z,4.60
2023-05-21T11:52:05.005Z,5.05
2023-05-21T11:54:57.525Z,4.88
2023-05-21T11:57:48.374Z,4.72
2023-05-21T12:00:42.623Z,4.80
2023-05-21T12:03:30.579Z,4.75
2023-05-21T12:06:18.197Z,4.53
2023-05-21T12:09:04.879Z,4.78
2023-05-21T12:11:51.670Z,4.88
2023-05-21T12:14:37.747Z,5.05
2023-05-21T12:17:25.842Z,4.85
2023-05-21T12:20:16.540Z,5.30
2023-05-21T12:23:02.672Z,4.65
2023-05-21T12:25:48.552Z,4.95
2023-05-21T12:28:34.878Z,4.57
2023-05-21T12:31:22.755Z,5.15
2023-05-21T12:34:09.270Z,4.68
2023-05-21T12:36:55.621Z,4.47
2023-05-21T12:39:47.772Z,5.28
2023-05-21T12:45:22.870Z,5.13
2023-05-21T12:48:09.264Z,5.38
2023-05-21T12:50:55.665Z,5.13
2023-05-21T12:53:43.173Z,5.60
2023-05-21T12:56:45.269Z,4.88
2023-05-21T12:59:49.539Z,4.88
2023-05-21T13:02:46.224Z,5.32
2023-05-21T13:05:32.784Z,4.82
2023-05-21T13:08:19.104Z,4.88
2023-05-21T13:11:05.493Z,4.80
2023-05-21T13:13:51.597Z,5.18
2023-05-21T13:16:37.596Z,5.10
2023-05-21T13:22:10.488Z,5.03
2023-05-21T13:24:56.815Z,5.32
2023-05-21T13:27:43.608Z,5.07
2023-05-21T13:30:29.949Z,5.22
2023-05-21T13:33:16.602Z,4.90
2023-05-21T13:36:02.743Z,4.90
2023-05-21T13:38:48.687Z,5.05
2023-05-21T13:41:34.584Z,4.93
2023-05-21T13:44:20.700Z,5.10
2023-05-21T13:49:52.970Z,4.68
2023-05-21T13:52:39.280Z,5.30
2023-05-21T13:55:25.537Z,4.82
2023-05-21T13:58:11.544Z,4.95
2023-05-21T14:00:57.618Z,5.13
2023-05-21T14:03:43.938Z,4.90
2023-05-21T14:06:32.016Z,5.18
2023-05-21T14:09:18.460Z,5.05
2023-05-21T14:12:06.629Z,5.97
2023-05-21T14:14:52.756Z,5.22
2023-05-21T14:17:40.607Z,5.10
2023-05-21T14:20:27.164Z,4.78
2023-05-21T14:23:13.087Z,5.57
2023-05-21T14:28:45.656Z,5.10
2023-05-21T14:31:31.976Z,4.80
2023-05-21T14:34:17.791Z,5.25
2023-05-21T14:37:03.817Z,4.68
2023-05-21T14:39:49.637Z,4.78
2023-05-21T14:42:35.732Z,4.82
2023-05-21T14:45:22.476Z,4.75
2023-05-21T14:48:08.845Z,4.55
2023-05-21T14:50:55.197Z,4.93
2023-05-21T14:53:41.179Z,4.47
2023-05-21T14:56:28.103Z,5.05
2023-05-21T14:59:14.370Z,4.80
2023-05-21T15:02:00.704Z,4.68
2023-05-21T15:04:46.971Z,4.88
2023-05-21T15:07:33.386Z,4.95
2023-05-21T15:13:05.578Z,4.75
2023-05-21T15:15:51.940Z,4.70
2023-05-21T15:18:39.148Z,4.43
2023-05-21T15:21:27.868Z,4.90
2023-05-21T15:24:14.006Z,4.43
2023-05-21T15:27:00.329Z,4.80
2023-05-21T15:29:46.512Z,4.82
2023-05-21T15:32:32.371Z,4.95
2023-05-21T15:35:18.606Z,4.78
2023-05-21T15:38:05.108Z,4.75
2023-05-21T15:40:50.991Z,4.50
2023-05-21T15:46:24.068Z,4.68
2023-05-21T15:49:10.428Z,4.78
2023-05-21T15:51:58.018Z,4.60
2023-05-21T15:54:44.147Z,4.45
2023-05-21T15:57:30.391Z,4.78
2023-05-21T16:00:16.671Z,4.47
2023-05-21T16:03:02.953Z,4.38
2023-05-21T16:05:49.114Z,4.35
2023-05-21T16:08:35.118Z,4.82
2023-05-21T16:11:21.481Z,4.30
2023-05-21T16:14:07.491Z,4.65
2023-05-21T16:16:53.630Z,4.93
2023-05-21T16:19:39.856Z,4.38
2023-05-21T16:22:26.162Z,4.38
2023-05-21T16:25:12.415Z,4.68
2023-05-21T16:27:58.421Z,4.65
2023-05-21T16:30:44.355Z,4.35
2023-05-21T16:33:30.323Z,4.05
2023-05-21T16:36:17.991Z,4.35
2023-05-21T16:39:04.683Z,4.72
2023-05-21T16:41:50.745Z,4.82
2023-05-21T16:44:37.953Z,4.68
2023-05-21T16:47:24.314Z,4.35
2023-05-21T16:50:10.382Z,4.38
2023-05-21T16:52:56.505Z,5.28
2023-05-21T16:55:43.313Z,4.60
2023-05-21T16:58:29.792Z,4.28
2023-05-21T17:01:16.307Z,4.32
2023-05-21T17:04:02.326Z,4.68
2023-05-21T17:09:35.421Z,4.95
2023-05-21T17:12:21.959Z,4.00
2023-05-21T17:15:08.156Z,4.18
2023-05-21T17:17:54.245Z,4.60
2023-05-21T17:20:40.395Z,4.50
2023-05-21T17:23:26.631Z,4.75
2023-05-21T17:26:13.897Z,4.65
2023-05-21T17:29:00.074Z,4.75
2023-05-21T17:31:45.968Z,4.72
2023-05-21T17:34:32.523Z,4.78
2023-05-21T17:37:18.602Z,4.80
2023-05-21T17:40:05.644Z,4.50
2023-05-21T17:42:52.419Z,5.03
2023-05-21T17:45:39.153Z,4.90
2023-05-21T17:48:26.165Z,4.95
2023-05-21T17:51:13.065Z,4.95
2023-05-21T17:53:59.498Z,5.15
2023-05-21T17:56:46.586Z,5.20
2023-05-21T17:59:33.010Z,4.85
2023-05-21T18:02:18.904Z,4.68
2023-05-21T18:05:05.048Z,5.38
2023-05-21T18:07:51.312Z,5.10
2023-05-21T18:10:37.198Z,5.35
2023-05-21T18:13:23.945Z,5.40
2023-05-21T18:16:10.382Z,5.45
2023-05-21T18:18:56.561Z,5.38
2023-05-21T18:21:42.957Z,5.70
2023-05-21T18:24:28.904Z,5.50
2023-05-21T18:27:15.547Z,5.75
2023-05-21T18:30:05.021Z,5.18
2023-05-21T18:32:51.203Z,5.40
2023-05-21T18:35:37.778Z,5.90
2023-05-21T18:41:10.022Z,5.40
2023-05-21T18:43:56.136Z,5.82
2023-05-21T18:46:42.299Z,5.45
2023-05-21T18:49:33.816Z,5.55
2023-05-21T18:52:20.200Z,9.27
2023-05-21T18:55:06.708Z,6.00
2023-05-21T18:57:52.695Z,5.57
2023-05-21T19:00:39.776Z,6.15
2023-05-21T19:03:26.110Z,5.70
2023-05-21T19:08:58.398Z,6.32
2023-05-21T19:11:44.337Z,6.05
2023-05-21T19:14:30.137Z,5.93
2023-05-21T19:17:15.953Z,5.78
2023-05-21T19:20:05.208Z,6.38
2023-05-21T19:22:51.532Z,6.38
2023-05-21T19:25:38.487Z,5.75
2023-05-21T19:28:24.810Z,5.57
2023-05-21T19:31:10.940Z,5.78
2023-05-21T19:36:52.987Z,5.93
2023-05-21T19:39:41.476Z,6.05
2023-05-21T19:42:27.783Z,5.78
2023-05-21T19:45:15.563Z,5.50
2023-05-21T19:48:01.792Z,5.55
2023-05-21T19:50:48.201Z,5.72
2023-05-21T19:53:34.853Z,6.18
2023-05-21T19:56:22.379Z,6.20
2023-05-21T19:59:08.262Z,5.57
2023-05-21T20:01:55.004Z,5.75
2023-05-21T20:04:41.068Z,5.60
2023-05-21T20:07:27.086Z,5.72
2023-05-21T20:10:13.112Z,5.50
2023-05-21T20:15:45.624Z,5.70
2023-05-21T20:18:31.707Z,5.85
2023-05-21T20:21:18.271Z,5.72
2023-05-21T20:24:04.926Z,5.85
2023-05-21T20:26:51.227Z,5.90
2023-05-21T20:29:37.471Z,6.22
2023-05-21T20:32:23.451Z,6.32
2023-05-21T20:35:09.449Z,5.90
2023-05-21T20:37:55.850Z,6.07
2023-05-21T20:40:43.925Z,6.10
2023-05-21T20:43:30.063Z,5.45
2023-05-21T20:46:17.232Z,6.35
2023-05-21T20:49:07.276Z,5.95
2023-05-21T20:51:53.611Z,5.93
2023-05-21T20:54:39.472Z,5.88
2023-05-21T20:57:27.314Z,5.57
2023-05-21T21:00:15.654Z,6.28
2023-05-21T21:03:03.885Z,5.88
2023-05-21T21:05:50.691Z,6.35
2023-05-21T21:08:36.672Z,6.60
2023-05-21T21:11:23.375Z,6.25
2023-05-21T21:14:09.956Z,5.53
2023-05-21T21:19:41.707Z,5.93
2023-05-21T21:22:28.570Z,6.18
2023-05-21T21:25:14.953Z,6.57
2023-05-21T21:28:00.810Z,6.43
2023-05-21T21:30:47.009Z,6.22
2023-05-21T21:33:33.278Z,6.50
2023-05-21T21:36:19.159Z,6.50
2023-05-21T21:39:05.202Z,7.00
2023-05-21T21:41:51.447Z,6.10
2023-05-21T21:44:39.192Z,6.20
2023-05-21T21:47:25.298Z,6.28
2023-05-21T21:50:12.137Z,7.03
2023-05-21T21:52:57.981Z,7.03
2023-05-21T21:55:43.946Z,6.55
2023-05-21T21:58:29.904Z,6.55
2023-05-21T22:01:16.100Z,6.40
2023-05-21T22:06:48.304Z,6.72
2023-05-21T22:09:34.613Z,6.80
2023-05-21T22:15:08.019Z,6.53
2023-05-21T22:17:53.993Z,6.50
2023-05-21T22:20:40.426Z,6.70
2023-05-21T22:23:26.521Z,6.78
2023-05-21T22:26:12.576Z,6.63
2023-05-21T22:28:59.129Z,6.35
2023-05-21T22:34:31.320Z,6.10
2023-05-21T22:37:17.867Z,6.13
2023-05-21T22:40:08.359Z,6.28
2023-05-21T22:42:54.453Z,6.00
2023-05-21T22:45:40.628Z,7.15
2023-05-21T22:48:26.690Z,6.25
2023-05-21T22:54:01.669Z,6.47
2023-05-21T22:56:49.290Z,6.43
2023-05-21T22:59:35.596Z,6.68
2023-05-21T23:02:21.681Z,6.45
2023-05-21T23:05:08.552Z,6.60
2023-05-21T23:10:40.917Z,6.25
2023-05-21T23:13:27.352Z,7.05
2023-05-21T23:16:13.302Z,6.70
2023-05-21T23:18:59.322Z,7.00
2023-05-21T23:21:45.434Z,6.63
2023-05-21T23:24:34.864Z,6.55
2023-05-21T23:27:21.113Z,7.03
2023-05-21T23:30:07.834Z,7.82
2023-05-21T23:32:54.052Z,7.05
2023-05-21T23:38:26.422Z,6.82
2023-05-21T23:41:13.157Z,6.38
2023-05-21T23:46:45.055Z,6.60
2023-05-21T23:49:31.000Z,7.65
2023-05-21T23:52:18.202Z,7.43
2023-05-21T23:55:04.440Z,6.72
2023-05-21T23:57:50.404Z,7.32
